Time;durP1;ratioP1;P1;durP2;ratioP2;P2;SDS_P1;SDS_P2;PMS_P1;PMS_P2;Temp;Humidity;BMP_temperature;BMP_pressure;BME280_temperature;BME280_humidity;BME280_pressure;Samples;Min_cycle;Max_cycle;Signal;HPM_P1;HPM_P2
2024/01/28 00:02:23;;;;;;;11.93;7.97;;;;;;;4.53;67.26;101137.34;5070041;28;20070;-76
2024/01/28 00:04:49;;;;;;;6.72;3.13;;;;;;;4.63;67.36;101133.63;5069705;28;20030;-76
2024/01/28 00:07:14;;;;;;;7.03;2.90;;;;;;;4.65;67.61;101128.19;5088790;28;20040;-76
2024/01/28 00:09:41;;;;;;;5.82;2.80;;;;;;;4.65;66.93;101130.03;5088406;28;20032;-77
2024/01/28 00:12:07;;;;;;;6.93;2.75;;;;;;;4.64;69.07;101147.69;5069558;28;20098;-77
2024/01/28 00:14:33;;;;;;;6.38;2.95;;;;;;;4.41;68.97;101119.13;5069535;28;20032;-77
2024/01/28 00:16:58;;;;;;;7.43;3.08;;;;;;;4.49;70.25;101136.00;5067750;28;20048;-76
2024/01/28 00:19:24;;;;;;;8.07;4.60;;;;;;;4.65;69.36;101133.50;5050074;28;20032;-76
2024/01/28 00:21:49;;;;;;;5.80;3.15;;;;;;;4.43;69.48;101125.09;5068271;28;20408;-76
2024/01/28 00:24:18;;;;;;;12.20;8.55;;;;;;;4.36;70.32;101129.31;5068896;28;20044;-77
2024/01/28 00:26:43;;;;;;;6.90;2.67;;;;;;;4.65;69.97;101144.06;5068134;28;20021;-77
2024/01/28 00:29:09;;;;;;;6.45;2.80;;;;;;;4.50;70.82;101140.31;5067195;28;20024;-78
2024/01/28 00:31:34;;;;;;;6.32;3.03;;;;;;;4.25;70.88;101115.50;5067879;28;20029;-77
2024/01/28 00:34:01;;;;;;;5.72;2.92;;;;;;;4.28;72.04;101150.34;5071325;28;20031;-76
2024/01/28 00:36:27;;;;;;;8.07;3.13;;;;;;;4.25;71.90;101148.03;5069412;28;20039;-77
2024/01/28 00:38:53;;;;;;;5.40;2.80;;;;;;;4.09;72.67;101142.59;5087854;28;20106;-76
2024/01/28 00:41:23;;;;;;;7.03;2.92;;;;;;;3.85;73.19;101128.16;5079672;28;20101;-76
2024/01/28 00:43:52;;;;;;;5.07;2.65;;;;;;;3.99;72.98;101142.66;5070282;28;20020;-77
2024/01/28 00:46:18;;;;;;;5.97;2.78;;;;;;;4.02;72.46;101153.75;5086431;28;20456;-76
2024/01/28 00:48:43;;;;;;;5.32;2.55;;;;;;;3.88;72.81;101124.38;5087401;28;20115;-77
2024/01/28 00:51:09;;;;;;;5.90;2.50;;;;;;;4.04;72.78;101145.66;5081803;28;20641;-77
2024/01/28 00:53:34;;;;;;;4.95;2.50;;;;;;;4.15;71.57;101148.09;5067559;28;20021;-77
2024/01/28 00:55:59;;;;;;;6.22;2.33;;;;;;;4.11;71.59;101143.28;5071142;28;20040;-76
2024/01/28 00:58:29;;;;;;;4.85;2.40;;;;;;;4.05;71.37;101133.31;5067177;28;20565;-76
2024/01/28 01:00:54;;;;;;;4.38;2.40;;;;;;;4.19;72.11;101164.47;5067980;28;20123;-76
2024/01/28 01:03:20;;;;;;;6.03;2.58;;;;;;;4.20;72.01;101147.63;5067920;28;20120;-77
2024/01/28 01:05:46;;;;;;;4.00;2.40;;;;;;;4.25;71.96;101147.19;5069828;28;20036;-77
2024/01/28 01:08:11;;;;;;;6.05;2.30;;;;;;;4.31;72.68;101150.06;5068117;28;20029;-77
2024/01/28 01:10:37;;;;;;;6.15;2.63;;;;;;;4.34;72.47;101152.38;5049344;28;20413;-77
2024/01/28 01:13:02;;;;;;;4.65;2.58;;;;;;;4.38;72.27;101153.75;5067440;28;20397;-77
2024/01/28 01:15:29;;;;;;;5.32;2.67;;;;;;;4.34;72.18;101151.56;5078286;28;20051;-77
2024/01/28 01:17:56;;;;;;;4.28;2.53;;;;;;;4.33;71.62;101153.38;5087484;28;20054;-77
2024/01/28 01:20:21;;;;;;;7.60;2.88;;;;;;;4.15;72.81;101160.47;5087494;28;20066;-77
2024/01/28 01:22:46;;;;;;;8.40;3.70;;;;;;;4.10;73.46;101166.19;5087795;28;20035;-78
2024/01/28 01:25:13;;;;;;;4.90;2.53;;;;;;;3.96;74.22;101154.34;5086483;28;20024;-76
2024/01/28 01:27:38;;;;;;;7.90;4.18;;;;;;;3.88;74.04;101138.41;5087809;28;20485;-76
2024/01/28 01:30:05;;;;;;;6.47;2.63;;;;;;;3.99;74.22;101148.75;5069067;28;20042;-78
2024/01/28 01:32:30;;;;;;;5.38;2.58;;;;;;;4.21;72.98;101173.06;5087660;28;20027;-76
2024/01/28 01:34:56;;;;;;;6.22;2.72;;;;;;;4.11;73.40;101167.84;5085791;28;20032;-76
2024/01/28 01:37:21;;;;;;;5.22;2.55;;;;;;;4.07;73.40;101176.22;5087644;28;20020;-76
2024/01/28 01:39:46;;;;;;;4.47;2.63;;;;;;;4.07;72.52;101163.03;5089530;28;20024;-76
2024/01/28 01:42:12;;;;;;;4.72;2.67;;;;;;;3.96;74.13;101185.16;5082153;28;20028;-76
2024/01/28 01:44:37;;;;;;;7.13;2.42;;;;;;;3.98;73.86;101172.66;5072980;28;20093;-77
2024/01/28 01:47:03;;;;;;;6.55;2.50;;;;;;;3.77;73.99;101157.91;5090726;28;20770;-77
2024/01/28 01:49:29;;;;;;;5.68;2.58;;;;;;;3.84;74.12;101160.78;5090768;28;20028;-77
2024/01/28 01:51:54;;;;;;;4.55;2.38;;;;;;;3.89;73.78;101174.38;5084944;28;20031;-76
2024/01/28 01:54:21;;;;;;;4.60;2.55;;;;;;;3.75;74.11;101166.97;5070682;28;20032;-77
2024/01/28 01:56:47;;;;;;;4.93;2.67;;;;;;;3.69;74.13;101164.91;5074041;28;20461;-76
2024/01/28 01:59:12;;;;;;;3.90;2.20;;;;;;;3.73;74.51;101180.28;5071033;28;20121;-76
2024/01/28 02:01:38;;;;;;;6.32;2.83;;;;;;;3.86;74.05;101184.38;5073610;28;20446;-77
2024/01/28 02:04:04;;;;;;;6.72;2.50;;;;;;;3.69;75.55;101201.84;5072320;28;20542;-77
2024/01/28 02:06:29;;;;;;;5.47;2.50;;;;;;;3.60;76.10;101193.81;5089970;28;20599;-76
2024/01/28 02:08:55;;;;;;;6.78;4.10;;;;;;;3.46;75.74;101182.94;5090849;28;20028;-77
2024/01/28 02:11:22;;;;;;;5.43;2.70;;;;;;;3.51;74.97;101186.78;5089999;28;20409;-76
2024/01/28 02:13:48;;;;;;;4.72;2.60;;;;;;;3.55;75.35;101185.50;5071034;28;20040;-76
2024/01/28 02:16:13;;;;;;;5.80;2.72;;;;;;;3.65;75.92;101192.56;5081264;28;20469;-76
2024/01/28 02:18:38;;;;;;;6.93;2.75;;;;;;;3.55;75.28;101196.06;5071962;28;20024;-75
2024/01/28 02:21:04;;;;;;;6.68;2.90;;;;;;;3.33;75.51;101180.59;5090550;28;20028;-77
2024/01/28 02:23:29;;;;;;;5.32;2.58;;;;;;;3.37;76.10;101181.97;5074900;28;20544;-77
2024/01/28 02:25:55;;;;;;;5.35;2.67;;;;;;;3.29;75.92;101169.53;5072543;28;20040;-77
2024/01/28 02:28:21;;;;;;;7.80;3.25;;;;;;;3.34;75.56;101185.72;5069866;28;20102;-77
2024/01/28 02:30:47;;;;;;;5.07;3.00;;;;;;;3.18;77.06;101191.59;5052159;28;20038;-78
2024/01/28 02:33:12;;;;;;;6.05;2.70;;;;;;;3.09;77.06;101183.75;5069783;28;20046;-76
2024/01/28 02:35:38;;;;;;;6.05;2.92;;;;;;;3.04;77.85;101199.97;5074181;28;20469;-75
2024/01/28 02:38:03;;;;;;;6.47;2.72;;;;;;;3.10;76.84;101199.38;5089727;28;20046;-76
2024/01/28 02:40:30;;;;;;;6.88;3.63;;;;;;;2.89;77.66;101182.94;5090074;28;20040;-77
2024/01/28 02:42:56;;;;;;;7.63;3.83;;;;;;;3.04;77.09;101186.78;5062523;28;20059;-76
2024/01/28 02:45:22;;;;;;;7.00;3.33;;;;;;;3.09;77.73;101210.91;5071275;28;20470;-77
2024/01/28 02:47:48;;;;;;;6.50;3.80;;;;;;;2.96;78.06;101197.19;5071423;28;20485;-76
2024/01/28 02:50:13;;;;;;;8.73;3.60;;;;;;;3.10;77.18;101219.66;5051524;28;20042;-76
2024/01/28 02:52:38;;;;;;;7.97;4.10;;;;;;;2.75;78.89;101211.38;5069124;28;20031;-77
2024/01/28 02:55:04;;;;;;;8.40;3.75;;;;;;;2.81;78.65;101212.63;5069665;28;20078;-77
2024/01/28 02:57:30;;;;;;;6.70;3.85;;;;;;;2.69;78.16;101188.22;5087299;28;20119;-77
2024/01/28 02:59:55;;;;;;;6.22;3.40;;;;;;;2.77;78.74;101214.69;5089512;28;20043;-76
2024/01/28 03:02:21;;;;;;;7.38;3.45;;;;;;;2.84;78.68;101224.66;5088600;28;20032;-77
2024/01/28 03:04:46;;;;;;;7.28;3.70;;;;;;;2.63;79.04;101212.47;5069336;28;20032;-77
2024/01/28 03:07:12;;;;;;;9.80;3.42;;;;;;;2.39;79.82;101207.59;5072043;28;20048;-78
2024/01/28 03:09:38;;;;;;;7.93;4.00;;;;;;;2.52;80.23;101220.53;5051285;28;20032;-77
2024/01/28 03:12:04;;;;;;;10.15;3.90;;;;;;;2.47;78.56;101185.88;5069460;28;20028;-75
2024/01/28 03:14:30;;;;;;;9.07;3.40;;;;;;;2.45;80.06;101214.97;5050479;28;20024;-76
2024/01/28 03:16:57;;;;;;;8.70;3.13;;;;;;;2.37;81.23;101218.31;5080460;28;20063;-77
2024/01/28 03:19:23;;;;;;;8.32;3.90;;;;;;;2.53;80.27;101225.63;5090022;28;20016;-78
2024/01/28 03:21:48;;;;;;;6.30;3.42;;;;;;;2.52;80.28;101210.00;5089532;28;20043;-76
2024/01/28 03:24:13;;;;;;;12.23;4.00;;;;;;;2.54;80.73;101200.16;5074036;28;20105;-77
2024/01/28 03:26:39;;;;;;;10.27;4.50;;;;;;;2.65;81.28;101228.97;5054450;28;20122;-77
2024/01/28 03:29:04;;;;;;;10.68;4.35;;;;;;;2.68;81.61;101214.72;5069149;28;20458;-77
2024/01/28 03:31:30;;;;;;;8.40;3.80;;;;;;;2.61;81.99;101198.63;5050278;28;20076;-77
2024/01/28 03:33:56;;;;;;;8.60;3.63;;;;;;;2.57;81.92;101197.22;5068307;28;20036;-77
2024/01/28 03:36:21;;;;;;;9.18;3.40;;;;;;;2.82;81.57;101232.75;5073642;28;20486;-76
2024/01/28 03:38:47;;;;;;;8.45;3.03;;;;;;;2.70;82.05;101228.59;5070785;28;20031;-77
2024/01/28 03:41:16;;;;;;;6.00;3.13;;;;;;;2.76;81.60;101218.31;5088862;28;20031;-76
2024/01/28 03:43:46;;;;;;;7.35;3.10;;;;;;;2.73;81.90;101212.47;5079992;28;20074;-76
2024/01/28 03:46:12;;;;;;;7.93;3.22;;;;;;;2.79;82.45;101207.47;5070502;28;20024;-76
2024/01/28 03:48:37;;;;;;;11.50;4.05;;;;;;;2.84;82.45;101215.00;5088576;28;20039;-76
2024/01/28 03:51:02;;;;;;;8.43;4.03;;;;;;;2.77;82.54;101225.22;5088568;28;20024;-76
2024/01/28 03:53:28;;;;;;;8.82;3.42;;;;;;;2.32;85.18;101201.25;5088276;28;20494;-76
2024/01/28 03:55:53;;;;;;;10.15;3.15;;;;;;;2.58;85.54;101230.50;5088701;28;20028;-76
2024/01/28 03:58:19;;;;;;;7.03;2.85;;;;;;;2.61;84.88;101230.22;5071794;28;20079;-76
2024/01/28 04:00:44;;;;;;;10.55;3.83;;;;;;;2.80;84.14;101248.69;5050205;28;20122;-76
2024/01/28 04:03:10;;;;;;;46.38;10.68;;;;;;;2.79;83.61;101222.47;5068415;28;20021;-76
2024/01/28 04:05:36;;;;;;;31.08;9.20;;;;;;;2.87;82.36;101216.50;5050267;28;20039;-78
2024/01/28 04:08:01;;;;;;;16.20;5.68;;;;;;;2.94;83.09;101230.75;5072660;28;20051;-77
2024/01/28 04:10:27;;;;;;;7.13;3.00;;;;;;;2.57;83.40;101205.13;5068133;28;20103;-76
2024/01/28 04:12:55;;;;;;;9.05;3.67;;;;;;;2.90;83.21;101237.28;5068064;28;20017;-77
2024/01/28 04:15:20;;;;;;;6.90;3.72;;;;;;;2.74;82.40;101219.44;5068119;28;20055;-77
2024/01/28 04:17:46;;;;;;;7.20;3.40;;;;;;;2.91;82.89;101236.31;5079392;28;20396;-76
2024/01/28 04:20:11;;;;;;;161.90;104.78;;;;;;;2.39;84.29;101216.38;5088641;28;20144;-78
2024/01/28 04:22:37;;;;;;;153.32;98.72;;;;;;;2.29;85.09;101212.88;5087914;28;20027;-76
2024/01/28 04:25:02;;;;;;;268.15;163.82;;;;;;;2.24;86.31;101244.03;5072879;28;20033;-76
2024/01/28 04:27:28;;;;;;;142.30;107.70;;;;;;;2.07;88.35;101265.75;5070666;28;20127;-77
2024/01/28 04:29:53;;;;;;;71.18;52.83;;;;;;;1.87;89.39;101263.03;5067623;28;20590;-78
2024/01/28 04:32:18;;;;;;;21.50;15.70;;;;;;;1.95;88.64;101254.50;5066988;28;20129;-76
2024/01/28 04:34:44;;;;;;;12.02;5.10;;;;;;;2.35;86.87;101274.66;5050349;28;20032;-77
2024/01/28 04:37:10;;;;;;;15.43;8.35;;;;;;;2.21;87.40;101273.28;5070717;28;20028;-76
2024/01/28 04:39:35;;;;;;;76.55;53.78;;;;;;;1.98;88.25;101265.59;5068084;28;20028;-76
2024/01/28 04:42:01;;;;;;;23.95;19.77;;;;;;;2.17;88.86;101285.84;5067687;28;20028;-76
2024/01/28 04:44:27;;;;;;;12.48;8.90;;;;;;;2.12;87.87;101256.47;5067610;28;20071;-76
2024/01/28 04:46:52;;;;;;;38.50;29.85;;;;;;;2.16;88.48;101273.66;5052292;28;20101;-77
2024/01/28 04:49:18;;;;;;;19.75;15.55;;;;;;;2.32;86.80;101275.78;5051085;28;20032;-77
2024/01/28 04:51:43;;;;;;;12.15;6.43;;;;;;;2.34;88.35;101289.63;5049728;28;20489;-77
2024/01/28 04:54:09;;;;;;;10.52;5.03;;;;;;;2.29;89.32;101289.22;5067256;28;20487;-76
2024/01/28 04:56:34;;;;;;;10.15;6.05;;;;;;;2.42;89.05;101294.22;5068044;28;20582;-77
2024/01/28 04:59:02;;;;;;;12.55;5.45;;;;;;;2.20;89.31;101267.16;5084021;28;20028;-77
2024/01/28 05:01:27;;;;;;;32.80;24.00;;;;;;;2.21;88.05;101266.19;5087461;28;20111;-76
2024/01/28 05:03:53;;;;;;;21.60;12.60;;;;;;;2.17;89.21;101282.41;5067875;28;20111;-77
2024/01/28 05:06:18;;;;;;;11.10;5.20;;;;;;;2.29;89.36;101289.22;5067392;28;20028;-76
2024/01/28 05:08:44;;;;;;;9.80;5.78;;;;;;;2.30;88.66;101290.88;5082676;28;20111;-76
2024/01/28 05:11:09;;;;;;;13.10;7.07;;;;;;;2.26;89.03;101302.63;5087338;28;20093;-77
2024/01/28 05:13:36;;;;;;;28.50;23.92;;;;;;;2.15;90.31;101318.53;5087837;28;20046;-76
2024/01/28 05:16:01;;;;;;;11.05;5.90;;;;;;;2.17;90.08;101282.41;5073230;28;20087;-77
2024/01/28 05:18:26;;;;;;;11.95;6.13;;;;;;;2.31;89.62;101299.59;5081806;28;20079;-75
2024/01/28 05:20:52;;;;;;;12.73;6.10;;;;;;;2.26;89.58;101305.28;5091160;28;20027;-77
2024/01/28 05:23:17;;;;;;;23.05;20.60;;;;;;;2.15;91.44;101326.44;5072708;28;20058;-77
2024/01/28 05:25:42;;;;;;;19.92;16.42;;;;;;;2.24;90.42;101322.16;5075456;28;20029;-77
2024/01/28 05:28:08;;;;;;;9.02;4.82;;;;;;;2.04;90.48;101298.41;5078119;28;20103;-76
2024/01/28 05:30:34;;;;;;;13.00;7.40;;;;;;;2.26;90.64;101330.78;5091180;28;20038;-75
2024/01/28 05:33:00;;;;;;;13.45;7.85;;;;;;;2.35;90.06;101351.88;5091319;28;20020;-77
2024/01/28 05:35:25;;;;;;;22.02;14.40;;;;;;;2.32;90.22;101360.00;5079811;28;20124;-76
2024/01/28 05:37:51;;;;;;;27.20;16.90;;;;;;;2.29;90.09;101349.78;5073106;28;20020;-77
2024/01/28 05:40:17;;;;;;;64.78;54.03;;;;;;;2.22;90.58;101346.00;5070214;28;20039;-77
2024/01/28 05:42:43;;;;;;;15.30;10.52;;;;;;;2.20;89.92;101337.38;5070309;28;20029;-77
2024/01/28 05:45:09;;;;;;;22.52;20.33;;;;;;;2.32;89.81;101373.19;5070773;28;20036;-76
2024/01/28 05:47:34;;;;;;;12.60;9.95;;;;;;;2.52;88.39;101365.34;5071084;28;20135;-77
2024/01/28 05:49:59;;;;;;;14.65;12.75;;;;;;;2.35;89.77;101367.66;5090135;28;20032;-77
2024/01/28 05:52:25;;;;;;;24.80;22.38;;;;;;;2.34;89.69;101379.16;5089852;28;20019;-76
2024/01/28 05:54:51;;;;;;;28.05;25.38;;;;;;;2.14;90.51;101372.13;5090403;28;20161;-76
2024/01/28 05:57:17;;;;;;;18.17;15.55;;;;;;;2.18;90.61;101384.06;5090403;28;20028;-76
2024/01/28 05:59:42;;;;;;;13.55;12.18;;;;;;;1.88;91.15;101372.56;5088347;28;20043;-77
2024/01/28 06:02:07;;;;;;;16.27;12.13;;;;;;;2.10;89.05;101352.31;5090038;28;20063;-76
2024/01/28 06:04:33;;;;;;;7.45;5.40;;;;;;;2.02;89.53;101387.16;5089874;28;20114;-76
2024/01/28 06:06:59;;;;;;;6.40;4.30;;;;;;;2.15;88.85;101386.97;5069768;28;20599;-76
2024/01/28 06:09:25;;;;;;;4.30;2.80;;;;;;;1.94;89.23;101358.03;5072631;28;20104;-76
2024/01/28 06:11:51;;;;;;;7.68;3.05;;;;;;;2.44;87.10;101396.78;5051896;28;20036;-76
2024/01/28 06:14:16;;;;;;;6.40;3.03;;;;;;;2.00;88.82;101353.13;5069522;28;20040;-76
2024/01/28 06:16:42;;;;;;;6.53;3.58;;;;;;;2.32;87.77;101383.72;5069143;28;20044;-76
2024/01/28 06:19:08;;;;;;;6.93;2.88;;;;;;;2.37;86.50;101375.41;5088457;28;20035;-77
2024/01/28 06:21:33;;;;;;;7.72;4.35;;;;;;;2.60;85.69;101389.22;5071747;28;20046;-77
2024/01/28 06:23:59;;;;;;;20.85;13.52;;;;;;;2.61;85.32;101398.78;5090096;28;20030;-76
2024/01/28 06:26:24;;;;;;;17.33;12.80;;;;;;;2.35;86.89;101403.66;5088612;28;20035;-76
2024/01/28 06:28:50;;;;;;;19.90;14.20;;;;;;;2.60;85.53;101415.56;5084766;28;20024;-77
2024/01/28 06:31:15;;;;;;;18.83;14.40;;;;;;;2.49;85.83;101410.38;5069589;28;20036;-77
2024/01/28 06:33:41;;;;;;;8.65;5.40;;;;;;;2.55;84.72;101399.31;5051422;28;20029;-77
2024/01/28 06:36:07;;;;;;;7.75;5.05;;;;;;;2.49;84.47;101407.75;5069751;28;20072;-76
2024/01/28 06:38:33;;;;;;;15.05;12.52;;;;;;;2.60;83.15;101397.13;5072165;28;20035;-77
2024/01/28 06:40:59;;;;;;;14.77;11.65;;;;;;;2.89;83.47;101414.81;5089507;28;20516;-76
2024/01/28 06:43:25;;;;;;;10.15;7.00;;;;;;;2.79;83.10;101412.97;5069683;28;20028;-76
2024/01/28 06:45:52;;;;;;;10.63;6.65;;;;;;;2.98;82.19;101416.59;5076806;28;20117;-77
2024/01/28 06:48:17;;;;;;;12.93;7.30;;;;;;;2.82;83.19;101409.25;5090021;28;20424;-77
2024/01/28 06:50:43;;;;;;;10.63;6.07;;;;;;;3.06;82.51;101415.94;5053804;28;20040;-76
2024/01/28 06:53:08;;;;;;;10.82;7.93;;;;;;;3.18;81.76;101418.31;5069183;28;20064;-77
2024/01/28 06:55:33;;;;;;;11.80;8.50;;;;;;;3.45;80.13;101423.88;5050897;28;20428;-76
2024/01/28 06:58:00;;;;;;;24.50;9.85;;;;;;;3.51;79.60;101403.03;5051389;28;20190;-78
2024/01/28 07:00:26;;;;;;;36.60;12.82;;;;;;;3.71;78.69;101414.41;5068763;28;20028;-76
2024/01/28 07:02:53;;;;;;;35.63;12.20;;;;;;;3.70;75.03;101370.56;5089049;28;20024;-76
2024/01/28 07:05:19;;;;;;;15.20;7.03;;;;;;;3.88;74.76;101393.56;5089150;28;20028;-77
2024/01/28 07:07:44;;;;;;;21.40;8.95;;;;;;;4.09;74.75;101406.59;5089491;28;20028;-77
2024/01/28 07:10:10;;;;;;;19.08;7.78;;;;;;;3.97;73.60;101382.16;5076210;28;20400;-77
2024/01/28 07:12:36;;;;;;;12.05;5.90;;;;;;;4.20;73.90;101422.22;5050795;28;20032;-76
2024/01/28 07:15:02;;;;;;;17.80;7.53;;;;;;;4.31;74.40;101439.72;5068740;28;20028;-78
2024/01/28 07:17:27;;;;;;;16.02;6.47;;;;;;;4.45;73.44;101433.13;5068760;28;20036;-76
2024/01/28 07:19:53;;;;;;;14.63;5.43;;;;;;;4.36;72.41;101434.84;5068273;28;20272;-76
2024/01/28 07:22:18;;;;;;;12.40;5.78;;;;;;;4.31;71.58;101432.63;5050683;28;20043;-77
2024/01/28 07:24:43;;;;;;;10.85;4.47;;;;;;;3.99;74.48;101396.88;5068952;28;20569;-76
2024/01/28 07:27:09;;;;;;;7.60;4.03;;;;;;;4.14;74.22;101430.72;5069452;28;20035;-76
2024/01/28 07:29:35;;;;;;;8.50;4.82;;;;;;;4.15;74.37;101422.69;5068023;28;20032;-77
2024/01/28 07:32:00;;;;;;;10.70;5.35;;;;;;;3.89;74.49;101403.16;5068231;28;20040;-77
2024/01/28 07:34:26;;;;;;;8.80;4.93;;;;;;;3.96;73.57;101399.81;5068110;28;20569;-77
2024/01/28 07:36:54;;;;;;;8.57;4.65;;;;;;;4.13;73.41;101413.25;5067940;28;20494;-77
2024/01/28 07:39:19;;;;;;;9.32;5.40;;;;;;;4.39;72.59;101435.38;5049669;28;20028;-76
2024/01/28 07:41:46;;;;;;;7.25;3.95;;;;;;;4.12;72.97;101385.16;5068353;28;20140;-76
2024/01/28 07:44:12;;;;;;;10.52;5.40;;;;;;;4.58;73.88;101425.72;5068102;28;20035;-77
2024/01/28 07:46:37;;;;;;;8.30;5.13;;;;;;;4.86;72.91;101426.53;5067912;28;20025;-76
2024/01/28 07:49:03;;;;;;;12.23;5.07;;;;;;;5.02;70.83;101415.31;5068331;28;20059;-79
2024/01/28 07:51:28;;;;;;;8.20;4.10;;;;;;;5.10;69.72;101412.75;5050063;28;20030;-75
2024/01/28 07:53:54;;;;;;;8.48;4.03;;;;;;;5.17;69.40;101428.84;5068282;28;20028;-77
2024/01/28 07:56:19;;;;;;;9.88;4.63;;;;;;;5.11;69.49;101414.41;5068086;28;20421;-77
2024/01/28 07:58:45;;;;;;;10.27;4.70;;;;;;;5.21;69.44;101415.19;5067793;28;20028;-76
2024/01/28 08:01:10;;;;;;;11.45;5.50;;;;;;;5.53;68.08;101419.09;5067391;28;20036;-76
2024/01/28 08:03:35;;;;;;;10.45;4.57;;;;;;;5.83;68.04;101409.06;5067820;28;20441;-78
2024/01/28 08:06:01;;;;;;;7.63;4.75;;;;;;;6.00;66.88;101415.34;5067962;28;20024;-78
2024/01/28 08:08:26;;;;;;;12.90;4.97;;;;;;;6.32;65.74;101430.59;5067644;28;20129;-77
2024/01/28 08:10:52;;;;;;;6.20;3.40;;;;;;;6.15;63.47;101428.84;5067125;28;20023;-77
2024/01/28 08:13:19;;;;;;;6.75;3.08;;;;;;;6.10;63.09;101431.97;5049009;28;20039;-76
2024/01/28 08:15:45;;;;;;;7.60;3.00;;;;;;;6.29;62.77;101441.50;5067254;28;20056;-76
2024/01/28 08:18:11;;;;;;;7.05;3.38;;;;;;;6.51;62.44;101423.41;5067055;28;20040;-78
2024/01/28 08:20:37;;;;;;;6.25;3.28;;;;;;;6.75;61.76;101434.13;5058990;28;20028;-76
2024/01/28 08:23:03;;;;;;;10.05;4.00;;;;;;;6.92;61.79;101442.94;5069541;28;20028;-76
2024/01/28 08:25:29;;;;;;;11.55;4.22;;;;;;;7.06;59.63;101457.41;5087083;28;20024;-77
2024/01/28 08:27:54;;;;;;;8.35;4.72;;;;;;;6.91;60.28;101441.31;5087317;28;20103;-76
2024/01/28 08:30:22;;;;;;;5.75;2.75;;;;;;;7.22;59.04;101454.81;5086271;28;20024;-75
2024/01/28 08:32:48;;;;;;;;;;;;;;;7.14;59.17;101467.22;5087729;28;20397;-76
2024/01/28 08:35:13;;;;;;;6.45;2.78;;;;;;;7.13;58.18;101429.25;5087739;28;19922;-76
2024/01/28 08:37:39;;;;;;;8.35;3.35;;;;;;;7.18;57.28;101458.78;5077157;28;20028;-76
2024/01/28 08:40:07;;;;;;;7.93;3.30;;;;;;;7.31;58.09;101470.75;5070061;28;20457;-77
2024/01/28 08:42:32;;;;;;;;;;;;;;;7.56;56.94;101482.22;5068283;28;20680;-77
2024/01/28 08:44:58;;;;;;;7.03;3.75;;;;;;;7.30;57.08;101482.38;5067103;28;19923;-78
2024/01/28 08:47:24;;;;;;;7.00;3.55;;;;;;;7.41;57.13;101479.38;5067024;28;20091;-76
2024/01/28 08:49:50;;;;;;;7.97;4.32;;;;;;;7.53;56.39;101464.81;5066629;28;20478;-76
2024/01/28 08:52:16;;;;;;;9.50;3.70;;;;;;;7.68;56.16;101490.69;5069515;28;20562;-77
2024/01/28 08:54:45;;;;;;;7.57;3.22;;;;;;;7.64;55.09;101479.56;5067394;28;20024;-77
2024/01/28 08:57:10;;;;;;;9.15;3.35;;;;;;;7.53;55.87;101475.41;5049905;28;20082;-76
2024/01/28 08:59:36;;;;;;;12.35;5.50;;;;;;;8.81;53.42;101488.91;5067526;28;20507;-77
2024/01/28 09:02:01;;;;;;;6.72;2.90;;;;;;;8.66;53.01;101477.31;5083745;28;20028;-77
2024/01/28 09:04:27;;;;;;;8.60;3.55;;;;;;;8.67;52.00;101471.00;5087414;28;20055;-77
2024/01/28 09:06:53;;;;;;;5.07;2.67;;;;;;;8.60;52.04;101481.50;5087014;28;20103;-77
2024/01/28 09:09:18;;;;;;;5.93;3.30;;;;;;;9.20;52.44;101485.41;5087109;28;20123;-76
2024/01/28 09:11:44;;;;;;;8.18;3.05;;;;;;;9.17;51.68;101504.38;5085239;28;20039;-76
2024/01/28 09:14:09;;;;;;;6.97;3.08;;;;;;;9.17;50.15;101493.72;5087212;28;20062;-76
2024/01/28 09:16:35;;;;;;;6.07;3.05;;;;;;;9.23;50.06;101501.03;5087094;28;20097;-77
2024/01/28 09:19:03;;;;;;;7.93;3.30;;;;;;;9.13;49.97;101475.63;5069886;28;20056;-77
2024/01/28 09:21:29;;;;;;;7.32;2.88;;;;;;;9.64;49.51;101500.78;5077785;28;20060;-77
2024/01/28 09:23:55;;;;;;;5.57;2.50;;;;;;;8.93;49.50;101480.53;5087373;28;20499;-78
2024/01/28 09:26:20;;;;;;;4.53;2.45;;;;;;;8.94;49.26;101493.66;5069307;28;20027;-76
2024/01/28 09:28:45;;;;;;;4.85;2.50;;;;;;;8.95;49.78;101497.16;5087018;28;20477;-75
2024/01/28 09:31:12;;;;;;;5.63;2.55;;;;;;;9.09;49.42;101491.09;5067000;28;20036;-78
2024/01/28 09:33:37;;;;;;;5.20;2.42;;;;;;;9.07;48.15;101489.63;5087247;28;20112;-77
2024/01/28 09:36:03;;;;;;;6.20;2.33;;;;;;;9.05;50.42;101469.34;5068900;28;20115;-78
2024/01/28 09:38:28;;;;;;;5.30;2.42;;;;;;;9.41;50.00;101478.63;5076039;28;20029;-77
2024/01/28 09:40:54;;;;;;;6.60;2.30;;;;;;;9.51;47.86;101468.56;5070365;28;20397;-77
2024/01/28 09:43:31;;;;;;;10.57;2.20;;;;;;;9.70;46.56;101493.06;5086742;28;20020;-77
2024/01/28 09:45:57;;;;;;;6.22;1.90;;;;;;;9.57;46.72;101477.69;5087122;28;20058;-77
2024/01/28 09:48:23;;;;;;;3.20;1.60;;;;;;;9.27;46.07;101469.56;5077772;28;20064;-77
2024/01/28 09:50:48;;;;;;;4.88;1.98;;;;;;;9.27;46.80;101472.22;5068531;28;20064;-77
2024/01/28 09:53:14;;;;;;;5.32;2.60;;;;;;;9.15;48.02;101473.63;5067585;28;20029;-76
2024/01/28 09:55:40;;;;;;;6.15;2.00;;;;;;;9.27;45.89;101466.88;5048608;28;20051;-77
2024/01/28 09:58:05;;;;;;;5.03;2.00;;;;;;;9.40;45.59;101469.00;5066946;28;20059;-77
2024/01/28 10:00:31;;;;;;;5.25;1.88;;;;;;;9.24;43.97;101452.09;5067807;28;20032;-78
2024/01/28 10:02:57;;;;;;;4.00;1.88;;;;;;;9.72;43.52;101486.56;5072761;28;20063;-77
2024/01/28 10:05:22;;;;;;;4.05;2.47;;;;;;;9.72;43.69;101475.06;5070021;28;20488;-77
2024/01/28 10:07:50;;;;;;;4.60;2.13;;;;;;;10.05;45.28;101476.47;5069887;28;20506;-76
2024/01/28 10:10:17;;;;;;;2.97;1.70;;;;;;;9.88;41.93;101490.94;5069813;28;20455;-76
2024/01/28 10:12:45;;;;;;;5.93;2.53;;;;;;;10.28;43.69;101467.59;5085168;28;20492;-77
2024/01/28 10:15:18;;;;;;;3.53;2.00;;;;;;;10.35;42.52;101459.69;5071643;28;20627;-77
2024/01/28 10:17:48;;;;;;;4.03;2.25;;;;;;;10.21;42.57;101475.47;5077383;28;20489;-76
2024/01/28 10:20:16;;;;;;;3.22;1.58;;;;;;;10.19;41.21;101474.00;5072021;28;20488;-76
2024/01/28 10:22:41;;;;;;;6.45;3.22;;;;;;;10.14;42.24;101453.22;5078049;28;20544;-76
2024/01/28 10:25:15;;;;;;;3.90;1.75;;;;;;;9.99;41.61;101450.53;5070018;28;20119;-76
2024/01/28 10:27:44;;;;;;;7.50;3.03;;;;;;;10.20;41.23;101465.00;5070189;28;20102;-77
2024/01/28 10:30:11;;;;;;;6.30;2.97;;;;;;;10.51;40.07;101469.38;5070396;28;20028;-76
2024/01/28 10:32:37;;;;;;;4.43;1.77;;;;;;;10.58;39.97;101443.59;5082621;28;20035;-77
2024/01/28 10:35:13;;;;;;;3.92;1.90;;;;;;;10.72;39.64;101456.09;5090637;28;20020;-76
2024/01/28 10:37:40;;;;;;;4.30;1.73;;;;;;;10.60;38.90;101446.91;5090488;28;20595;-77
2024/01/28 10:40:08;;;;;;;3.10;1.83;;;;;;;11.30;39.00;101458.00;5072636;28;20035;-77
2024/01/28 10:42:42;;;;;;;5.70;2.00;;;;;;;11.69;38.45;101475.44;5081629;28;20039;-76
2024/01/28 10:45:13;;;;;;;5.53;2.30;;;;;;;11.05;37.72;101463.69;5090679;28;20036;-76
2024/01/28 10:47:44;;;;;;;4.22;1.50;;;;;;;10.63;38.60;101458.03;5093792;28;20036;-80
2024/01/28 10:50:13;;;;;;;3.75;1.60;;;;;;;10.88;38.07;101456.94;5082938;28;20116;-76
2024/01/28 10:52:38;;;;;;;3.88;1.92;;;;;;;11.06;38.15;101436.00;5081577;28;20477;-76
2024/01/28 10:55:05;;;;;;;8.20;1.70;;;;;;;11.19;37.04;101452.13;5081055;28;20085;-77
2024/01/28 10:57:32;;;;;;;4.78;2.00;;;;;;;11.23;38.30;101449.94;5080851;28;20036;-77
2024/01/28 10:59:59;;;;;;;3.03;1.47;;;;;;;11.06;37.27;101457.34;5062522;28;20035;-77
2024/01/28 11:02:26;;;;;;;4.45;1.85;;;;;;;11.27;38.12;101454.69;5088065;28;20096;-77
2024/01/28 11:04:52;;;;;;;3.85;1.67;;;;;;;11.37;35.93;101453.56;5083089;28;20032;-77
2024/01/28 11:07:19;;;;;;;9.65;1.63;;;;;;;11.21;36.95;101444.75;5083777;28;20131;-76
2024/01/28 11:09:45;;;;;;;3.65;1.67;;;;;;;11.16;36.21;101446.38;5089145;28;20027;-76
2024/01/28 11:12:12;;;;;;;4.45;1.65;;;;;;;11.20;37.01;101459.16;5084643;28;20032;-77
2024/01/28 11:14:38;;;;;;;5.53;1.90;;;;;;;11.42;36.17;101456.47;5098888;28;20030;-77
2024/01/28 11:17:04;;;;;;;4.90;1.70;;;;;;;11.80;36.33;101445.53;5084535;28;20117;-77
2024/01/28 11:19:29;;;;;;;3.35;1.40;;;;;;;11.95;35.32;101445.47;5082074;28;20028;-77
2024/01/28 11:21:58;;;;;;;2.67;1.40;;;;;;;11.89;34.22;101436.41;5079743;28;20062;-77
2024/01/28 11:24:24;;;;;;;4.50;1.63;;;;;;;12.27;35.05;101449.41;5079189;28;20111;-77